Time;durP1;ratioP1;P1;durP2;ratioP2;P2;SDS_P1;SDS_P2;PMS_P1;PMS_P2;Temp;Humidity;BMP_temperature;BMP_pressure;BME280_temperature;BME280_humidity;BME280_pressure;Samples;Min_cycle;Max_cycle;Signal;HPM_P1;HPM_P2
2022/09/11 00:00:50;;;;;;;4.83;3.50;;;;;;;;;;5076621;28;20188;-77
2022/09/11 00:03:18;;;;;;;3.80;3.40;;;;;;;;;;5060453;28;20586;-77
2022/09/11 00:05:45;;;;;;;5.73;3.57;;;;;;;;;;5057928;28;20188;-77
2022/09/11 00:08:12;;;;;;;4.07;3.00;;;;;;;;;;5054174;28;20205;-77
2022/09/11 00:10:39;;;;;;;3.70;3.23;;;;;;;;;;5085476;28;20271;-77
2022/09/11 00:13:10;;;;;;;3.47;3.10;;;;;;;;;;5072760;28;20663;-77
2022/09/11 00:15:37;;;;;;;3.60;3.30;;;;;;;;;;5052035;28;20303;-77
2022/09/11 00:18:03;;;;;;;3.97;3.13;;;;;;;;;;5060626;28;20207;-77
2022/09/11 00:20:30;;;;;;;3.67;3.30;;;;;;;;;;5073690;28;20207;-77
2022/09/11 00:22:57;;;;;;;3.87;3.30;;;;;;;;;;5095905;28;20219;-77
2022/09/11 00:25:23;;;;;;;10.43;3.67;;;;;;;;;;5079264;28;20176;-77
2022/09/11 00:27:50;;;;;;;5.10;3.50;;;;;;;;;;5097634;28;20556;-78
2022/09/11 00:30:17;;;;;;;3.90;3.40;;;;;;;;;;5071623;28;20185;-77
2022/09/11 00:32:43;;;;;;;4.23;3.40;;;;;;;;;;5079156;28;20177;-77
2022/09/11 00:35:11;;;;;;;3.23;3.03;;;;;;;;;;5074941;28;20228;-77
2022/09/11 00:37:37;;;;;;;5.93;3.37;;;;;;;;;;5071537;28;20272;-77
2022/09/11 00:40:04;;;;;;;5.60;3.90;;;;;;;;;;5069053;28;20180;-77
2022/09/11 00:42:30;;;;;;;4.10;3.13;;;;;;;;;;5076091;28;20185;-77
2022/09/11 00:44:59;;;;;;;4.63;3.63;;;;;;;;;;5076421;28;20613;-77
2022/09/11 00:47:26;;;;;;;4.80;3.60;;;;;;;;;;5077201;28;20180;-77
2022/09/11 00:49:53;;;;;;;4.13;3.80;;;;;;;;;;5048373;28;20212;-77
2022/09/11 00:52:26;;;;;;;4.80;3.60;;;;;;;;;;5076163;28;20176;-77
2022/09/11 00:55:10;;;;;;;4.63;4.00;;;;;;;;;;5074628;28;20594;-77
2022/09/11 00:57:39;;;;;;;3.90;3.60;;;;;;;;;;5071664;28;20228;-77
2022/09/11 01:00:07;;;;;;;5.60;4.33;;;;;;;;;;5097715;28;20208;-77
2022/09/11 01:02:35;;;;;;;6.57;4.07;;;;;;;;;;5076679;28;20246;-77
2022/09/11 01:05:02;;;;;;;3.93;3.53;;;;;;;;;;5069297;28;20233;-77
2022/09/11 01:07:29;;;;;;;4.10;3.53;;;;;;;;;;5070423;28;20176;-77
2022/09/11 01:09:58;;;;;;;4.60;4.03;;;;;;;;;;5072362;28;20303;-77
2022/09/11 01:12:29;;;;;;;5.27;3.90;;;;;;;;;;5032514;28;20200;-77
2022/09/11 01:15:04;;;;;;;4.60;3.83;;;;;;;;;;5070069;28;20172;-77
2022/09/11 01:17:49;;;;;;;4.40;3.50;;;;;;;;;;5071778;28;20241;-77
2022/09/11 01:20:20;;;;;;;4.27;3.73;;;;;;;;;;5080945;28;20501;-77
2022/09/11 01:22:49;;;;;;;3.43;3.13;;;;;;;;;;5072265;28;20239;-77
2022/09/11 01:25:27;;;;;;;4.80;3.60;;;;;;;;;;5078046;28;20188;-77
2022/09/11 01:27:54;;;;;;;5.43;3.87;;;;;;;;;;5053423;28;20188;-77
2022/09/11 01:30:21;;;;;;;4.03;3.60;;;;;;;;;;5053650;28;20185;-77
2022/09/11 01:33:00;;;;;;;4.87;3.90;;;;;;;;;;5067426;28;20184;-77
2022/09/11 01:35:45;;;;;;;3.73;3.43;;;;;;;;;;5090798;28;20252;-77
2022/09/11 01:38:41;;;;;;;3.83;3.43;;;;;;;;;;5071075;28;20310;-77
2022/09/11 01:41:13;;;;;;;3.50;3.20;;;;;;;;;;5073974;28;20192;-77
2022/09/11 01:43:41;;;;;;;3.90;3.50;;;;;;;;;;5055473;28;20240;-77
2022/09/11 01:46:09;;;;;;;5.10;3.37;;;;;;;;;;5067412;28;20177;-77
2022/09/11 01:48:41;;;;;;;5.23;4.33;;;;;;;;;;5069049;28;20509;-77
2022/09/11 01:51:09;;;;;;;4.83;3.57;;;;;;;;;;5088250;28;20196;-77
2022/09/11 01:53:38;;;;;;;4.77;3.90;;;;;;;;;;5076044;28;20195;-77
2022/09/11 01:56:12;;;;;;;3.70;3.40;;;;;;;;;;5073986;28;20235;-77
2022/09/11 01:58:40;;;;;;;4.80;3.83;;;;;;;;;;5076292;28;20200;-77
2022/09/11 02:01:15;;;;;;;3.97;3.50;;;;;;;;;;5073796;28;20172;-77
2022/09/11 02:03:50;;;;;;;3.50;3.20;;;;;;;;;;5072097;28;20183;-77
2022/09/11 02:06:23;;;;;;;5.37;3.67;;;;;;;;;;5053144;28;20290;-77
2022/09/11 02:09:05;;;;;;;3.87;3.57;;;;;;;;;;5037154;28;20236;-77
2022/09/11 02:11:33;;;;;;;4.20;3.83;;;;;;;;;;5053175;28;20533;-77
2022/09/11 02:14:28;;;;;;;5.20;4.70;;;;;;;;;;5079985;28;20185;-77
2022/09/11 02:17:02;;;;;;;7.77;4.33;;;;;;;;;;5073543;28;20595;-77
2022/09/11 02:19:30;;;;;;;5.13;4.67;;;;;;;;;;5057994;28;20421;-77
2022/09/11 02:21:57;;;;;;;4.47;4.07;;;;;;;;;;5052028;28;20206;-77
2022/09/11 02:24:24;;;;;;;4.77;4.33;;;;;;;;;;5056919;28;20185;-78
2022/09/11 02:26:52;;;;;;;4.60;4.20;;;;;;;;;;5065755;28;20286;-77
2022/09/11 02:29:20;;;;;;;5.30;4.80;;;;;;;;;;5062399;28;20698;-77
2022/09/11 02:31:46;;;;;;;5.57;4.37;;;;;;;;;;5062935;28;20222;-77
2022/09/11 02:34:13;;;;;;;5.03;4.57;;;;;;;;;;5083193;28;20176;-77
2022/09/11 02:36:58;;;;;;;4.97;4.37;;;;;;;;;;5065188;28;20212;-77
2022/09/11 02:39:39;;;;;;;4.70;4.17;;;;;;;;;;5066857;28;20215;-78
2022/09/11 02:42:26;;;;;;;5.00;4.60;;;;;;;;;;5055234;28;20480;-77
2022/09/11 02:45:16;;;;;;;4.67;4.27;;;;;;;;;;5054938;28;20191;-77
2022/09/11 02:47:43;;;;;;;6.73;4.30;;;;;;;;;;5068326;28;20172;-77
2022/09/11 02:50:20;;;;;;;5.17;4.07;;;;;;;;;;5061104;28;20181;-77
2022/09/11 02:53:06;;;;;;;4.53;4.03;;;;;;;;;;5076877;28;20671;-77
2022/09/11 02:55:52;;;;;;;4.57;4.17;;;;;;;;;;5038267;28;20220;-77
2022/09/11 02:58:25;;;;;;;4.37;3.60;;;;;;;;;;5083032;28;20199;-77
2022/09/11 03:00:55;;;;;;;4.70;4.30;;;;;;;;;;5067608;28;20199;-77
2022/09/11 03:03:21;;;;;;;4.53;4.13;;;;;;;;;;5060611;28;20176;-77
2022/09/11 03:05:47;;;;;;;5.87;5.27;;;;;;;;;;5069694;28;20219;-77
2022/09/11 03:08:15;;;;;;;4.23;3.77;;;;;;;;;;5075949;28;20219;-77
2022/09/11 03:10:45;;;;;;;5.10;4.30;;;;;;;;;;5076353;28;20660;-77
2022/09/11 03:13:14;;;;;;;6.50;4.40;;;;;;;;;;5065641;28;20193;-77
2022/09/11 03:15:44;;;;;;;5.70;4.80;;;;;;;;;;5061488;28;20609;-77
2022/09/11 03:18:14;;;;;;;5.00;4.40;;;;;;;;;;5059596;28;20644;-77
2022/09/11 03:20:44;;;;;;;5.23;4.50;;;;;;;;;;5086041;28;20196;-77
2022/09/11 03:23:10;;;;;;;5.00;4.40;;;;;;;;;;5073867;28;20289;-77
2022/09/11 03:25:36;;;;;;;4.87;4.00;;;;;;;;;;5064247;28;20218;-77
2022/09/11 03:28:04;;;;;;;5.07;4.60;;;;;;;;;;5070503;28;20216;-77
2022/09/11 03:30:33;;;;;;;5.10;4.70;;;;;;;;;;5069840;28;20192;-77
2022/09/11 03:33:03;;;;;;;6.33;4.63;;;;;;;;;;5051833;28;20198;-77
2022/09/11 03:35:29;;;;;;;4.47;3.90;;;;;;;;;;5070825;28;20204;-77
2022/09/11 03:37:56;;;;;;;5.50;5.00;;;;;;;;;;5075127;28;20200;-77
2022/09/11 03:40:22;;;;;;;4.83;4.10;;;;;;;;;;5039260;28;20221;-77
2022/09/11 03:42:48;;;;;;;5.37;4.90;;;;;;;;;;5075817;28;20176;-77
2022/09/11 03:45:16;;;;;;;5.83;5.20;;;;;;;;;;5057710;28;20552;-77
2022/09/11 03:47:42;;;;;;;5.23;4.77;;;;;;;;;;5058300;28;20181;-77
2022/09/11 03:50:09;;;;;;;6.60;5.60;;;;;;;;;;5037893;28;20579;-77
2022/09/11 03:52:36;;;;;;;5.97;4.67;;;;;;;;;;5079419;28;20179;-78
2022/09/11 03:55:03;;;;;;;7.17;5.03;;;;;;;;;;5075212;28;20185;-77
2022/09/11 03:57:32;;;;;;;6.07;5.00;;;;;;;;;;5075334;28;20172;-77
2022/09/11 04:00:00;;;;;;;6.13;5.00;;;;;;;;;;5070315;28;20204;-77
2022/09/11 04:02:33;;;;;;;5.50;5.00;;;;;;;;;;5064054;28;20184;-77
2022/09/11 04:04:59;;;;;;;5.10;4.60;;;;;;;;;;5073054;28;20830;-77
2022/09/11 04:07:25;;;;;;;5.17;4.47;;;;;;;;;;5074881;28;20175;-77
2022/09/11 04:09:52;;;;;;;5.40;4.50;;;;;;;;;;5074829;28;20227;-77
2022/09/11 04:12:18;;;;;;;5.07;4.40;;;;;;;;;;5062011;28;20195;-77
2022/09/11 04:14:45;;;;;;;5.43;5.00;;;;;;;;;;5046543;28;20178;-78
2022/09/11 04:17:11;;;;;;;4.83;4.43;;;;;;;;;;5072248;28;20216;-77
2022/09/11 04:19:38;;;;;;;5.67;5.17;;;;;;;;;;5069509;28;20214;-77
2022/09/11 04:22:04;;;;;;;6.30;5.70;;;;;;;;;;5047086;28;20188;-77
2022/09/11 04:24:34;;;;;;;5.73;5.33;;;;;;;;;;5059392;28;20453;-78
2022/09/11 04:27:00;;;;;;;6.33;5.47;;;;;;;;;;5087845;28;20217;-77
2022/09/11 04:29:28;;;;;;;7.23;5.63;;;;;;;;;;5046303;28;20603;-77
2022/09/11 04:31:56;;;;;;;5.83;5.27;;;;;;;;;;5085850;28;20186;-77
2022/09/11 04:34:26;;;;;;;6.70;6.00;;;;;;;;;;5073869;28;20180;-77
2022/09/11 04:36:54;;;;;;;5.73;5.13;;;;;;;;;;5076497;28;20204;-77
2022/09/11 04:39:20;;;;;;;6.87;5.60;;;;;;;;;;5076948;28;20212;-77
2022/09/11 04:41:48;;;;;;;6.73;5.27;;;;;;;;;;5059813;28;20256;-77
2022/09/11 04:44:15;;;;;;;6.37;5.83;;;;;;;;;;5072599;28;20259;-77
2022/09/11 04:46:44;;;;;;;6.23;5.73;;;;;;;;;;5057080;28;20185;-77
2022/09/11 04:49:10;;;;;;;6.90;6.30;;;;;;;;;;5076285;28;20223;-77
2022/09/11 04:51:37;;;;;;;5.90;5.40;;;;;;;;;;5070078;28;20195;-77
2022/09/11 04:54:05;;;;;;;5.87;5.33;;;;;;;;;;5075487;28;20213;-77
2022/09/11 04:56:38;;;;;;;6.63;6.03;;;;;;;;;;5076079;28;20244;-77
2022/09/11 04:59:12;;;;;;;6.40;5.70;;;;;;;;;;5080701;28;20207;-77
2022/09/11 05:01:39;;;;;;;9.13;5.70;;;;;;;;;;5073863;28;20177;-77
2022/09/11 05:04:05;;;;;;;6.63;5.90;;;;;;;;;;5076003;28;20176;-77
2022/09/11 05:06:32;;;;;;;6.70;6.10;;;;;;;;;;5070861;28;20183;-77
2022/09/11 05:09:03;;;;;;;6.93;6.13;;;;;;;;;;5052230;28;20219;-77
2022/09/11 05:11:30;;;;;;;6.90;6.20;;;;;;;;;;5053755;28;20192;-77
2022/09/11 05:13:57;;;;;;;6.87;5.90;;;;;;;;;;5067953;28;20684;-77
2022/09/11 05:16:26;;;;;;;8.10;6.37;;;;;;;;;;5060738;28;20208;-77
2022/09/11 05:18:52;;;;;;;8.40;6.13;;;;;;;;;;5091690;28;20214;-77
2022/09/11 05:21:21;;;;;;;9.53;7.10;;;;;;;;;;5068542;28;20269;-77
2022/09/11 05:23:49;;;;;;;8.60;7.83;;;;;;;;;;5040060;28;20188;-77
2022/09/11 05:26:16;;;;;;;8.00;7.20;;;;;;;;;;5064631;28;20198;-77
2022/09/11 05:28:43;;;;;;;7.23;6.57;;;;;;;;;;5047408;28;20205;-77
2022/09/11 05:31:17;;;;;;;6.90;6.20;;;;;;;;;;5072540;28;20279;-77
2022/09/11 05:33:45;;;;;;;7.40;6.70;;;;;;;;;;5072950;28;20233;-77
2022/09/11 05:36:12;;;;;;;7.63;6.17;;;;;;;;;;5062857;28;20238;-77
2022/09/11 05:38:38;;;;;;;6.90;6.30;;;;;;;;;;5074038;28;20271;-77
2022/09/11 05:41:06;;;;;;;6.77;6.17;;;;;;;;;;5073720;28;20193;-77
2022/09/11 05:43:36;;;;;;;7.10;6.27;;;;;;;;;;5032772;28;20181;-77
2022/09/11 05:46:02;;;;;;;7.30;6.60;;;;;;;;;;5032897;28;20188;-77
2022/09/11 05:48:31;;;;;;;7.53;6.83;;;;;;;;;;5070898;28;20204;-77
2022/09/11 05:51:08;;;;;;;7.80;7.00;;;;;;;;;;5073849;28;20593;-77
2022/09/11 05:53:34;;;;;;;8.77;7.23;;;;;;;;;;5066159;28;20177;-77
2022/09/11 05:56:07;;;;;;;8.43;7.63;;;;;;;;;;5073354;28;20278;-78
2022/09/11 05:58:34;;;;;;;7.20;6.40;;;;;;;;;;5055642;28;20268;-77
2022/09/11 06:01:19;;;;;;;8.33;7.53;;;;;;;;;;5042143;28;20215;-77
2022/09/11 06:03:51;;;;;;;8.40;7.67;;;;;;;;;;5077630;28;20700;-78
2022/09/11 06:06:21;;;;;;;7.67;7.07;;;;;;;;;;5077052;28;20192;-77
2022/09/11 06:08:48;;;;;;;7.73;7.03;;;;;;;;;;5070041;28;20200;-77
2022/09/11 06:11:15;;;;;;;8.33;7.53;;;;;;;;;;5074763;28;20246;-77
2022/09/11 06:13:43;;;;;;;8.53;7.83;;;;;;;;;;5063237;28;20181;-77
2022/09/11 06:16:13;;;;;;;8.30;7.60;;;;;;;;;;5067422;28;20214;-77
2022/09/11 06:18:39;;;;;;;8.27;7.57;;;;;;;;;;5088377;28;20248;-77
2022/09/11 06:21:10;;;;;;;7.30;6.70;;;;;;;;;;5074660;28;20180;-77
2022/09/11 06:23:43;;;;;;;8.70;7.90;;;;;;;;;;5057139;28;20535;-77
2022/09/11 06:26:13;;;;;;;8.43;7.43;;;;;;;;;;5075874;28;20213;-77
2022/09/11 06:28:41;;;;;;;7.83;7.13;;;;;;;;;;5048055;28;20265;-77
2022/09/11 06:31:15;;;;;;;9.33;8.53;;;;;;;;;;5066027;28;20180;-77
2022/09/11 06:33:41;;;;;;;9.03;7.70;;;;;;;;;;5041138;28;20627;-77
2022/09/11 06:36:10;;;;;;;8.57;7.73;;;;;;;;;;5067218;28;20204;-77
2022/09/11 06:38:37;;;;;;;8.30;7.50;;;;;;;;;;5066244;28;20795;-77
2022/09/11 06:41:05;;;;;;;8.37;7.57;;;;;;;;;;5072276;28;20354;-77
2022/09/11 06:43:35;;;;;;;7.87;7.17;;;;;;;;;;5048748;28;20181;-82
2022/09/11 06:46:11;;;;;;;8.00;7.30;;;;;;;;;;5054635;28;20489;-79
2022/09/11 06:48:38;;;;;;;8.23;7.43;;;;;;;;;;5048306;28;20215;-80
2022/09/11 06:51:06;;;;;;;9.63;8.73;;;;;;;;;;5065313;28;20591;-79
2022/09/11 06:53:33;;;;;;;8.93;8.13;;;;;;;;;;5056048;28;20192;-79
2022/09/11 06:56:05;;;;;;;9.10;8.30;;;;;;;;;;5074551;28;20218;-79
2022/09/11 06:58:33;;;;;;;8.30;7.60;;;;;;;;;;5071354;28;20292;-85
2022/09/11 07:01:08;;;;;;;8.20;7.50;;;;;;;;;;5063560;28;20189;-82
2022/09/11 07:03:34;;;;;;;8.17;7.37;;;;;;;;;;5050491;28;20188;-79
2022/09/11 07:06:03;;;;;;;8.17;7.27;;;;;;;;;;5057432;28;20175;-79
2022/09/11 07:08:29;;;;;;;8.83;7.93;;;;;;;;;;5063249;28;20227;-80
2022/09/11 07:11:02;;;;;;;10.23;9.27;;;;;;;;;;5072426;28;20754;-80
2022/09/11 07:13:28;;;;;;;9.77;8.27;;;;;;;;;;5043308;28;20492;-79
2022/09/11 07:16:06;;;;;;;8.60;7.87;;;;;;;;;;5063474;28;20277;-79
2022/09/11 07:18:35;;;;;;;9.43;8.63;;;;;;;;;;5033886;28;20237;-80
2022/09/11 07:21:05;;;;;;;9.57;8.63;;;;;;;;;;5064020;28;20180;-79
2022/09/11 07:23:33;;;;;;;9.00;8.20;;;;;;;;;;5080453;28;20208;-80
2022/09/11 07:26:07;;;;;;;10.63;9.57;;;;;;;;;;5060670;28;20184;-80
2022/09/11 07:28:34;;;;;;;10.67;9.53;;;;;;;;;;5035406;28;20216;-80
2022/09/11 07:31:09;;;;;;;9.33;8.53;;;;;;;;;;5048582;28;20189;-79
2022/09/11 07:33:35;;;;;;;9.57;8.67;;;;;;;;;;5090847;28;20184;-80
2022/09/11 07:36:09;;;;;;;11.13;9.83;;;;;;;;;;5062168;28;20244;-79
2022/09/11 07:38:35;;;;;;;10.63;9.60;;;;;;;;;;5059993;28;20782;-79
2022/09/11 07:41:02;;;;;;;10.17;9.23;;;;;;;;;;5076921;28;20184;-79
2022/09/11 07:43:30;;;;;;;10.23;9.23;;;;;;;;;;5071243;28;20185;-79
2022/09/11 07:45:57;;;;;;;8.93;8.10;;;;;;;;;;5039686;28;20215;-80
2022/09/11 07:48:23;;;;;;;11.10;10.07;;;;;;;;;;5065504;28;20196;-82
2022/09/11 07:51:03;;;;;;;11.63;10.43;;;;;;;;;;5069742;28;20205;-76
2022/09/11 07:53:34;;;;;;;10.63;9.63;;;;;;;;;;5064555;28;20195;-76
2022/09/11 07:56:02;;;;;;;11.67;10.47;;;;;;;;;;5078100;28;20269;-76
2022/09/11 07:58:33;;;;;;;9.23;8.33;;;;;;;;;;5065562;28;20210;-76
2022/09/11 08:01:01;;;;;;;10.07;9.17;;;;;;;;;;5089493;28;20187;-76
2022/09/11 08:03:29;;;;;;;8.97;8.17;;;;;;;;;;5073177;28;20211;-76
2022/09/11 08:05:57;;;;;;;11.83;10.10;;;;;;;;;;5051004;28;20191;-76
2022/09/11 08:08:24;;;;;;;9.43;7.97;;;;;;;;;;5080405;28;20564;-76
2022/09/11 08:10:51;;;;;;;10.33;9.33;;;;;;;;;;5058355;28;20209;-76
2022/09/11 08:13:17;;;;;;;10.53;9.37;;;;;;;;;;5075321;28;20703;-76
2022/09/11 08:15:46;;;;;;;10.83;9.83;;;;;;;;;;5072044;28;20213;-76
2022/09/11 08:18:13;;;;;;;10.60;9.57;;;;;;;;;;5083594;28;20200;-77
2022/09/11 08:20:40;;;;;;;12.20;10.37;;;;;;;;;;5069816;28;20183;-76
2022/09/11 08:23:08;;;;;;;12.83;11.53;;;;;;;;;;5056724;28;20266;-76
2022/09/11 08:25:35;;;;;;;13.17;11.50;;;;;;;;;;5082231;28;20207;-76
2022/09/11 08:28:03;;;;;;;13.43;11.90;;;;;;;;;;5065667;28;20200;-77
2022/09/11 08:30:29;;;;;;;12.23;10.20;;;;;;;;;;5074558;28;20225;-76
2022/09/11 08:32:55;;;;;;;11.53;10.33;;;;;;;;;;5081447;28;20180;-76
2022/09/11 08:35:21;;;;;;;10.93;9.83;;;;;;;;;;5081250;28;20197;-76
2022/09/11 08:37:48;;;;;;;13.67;11.17;;;;;;;;;;5071505;28;20465;-76
2022/09/11 08:40:14;;;;;;;12.93;11.47;;;;;;;;;;5076441;28;20252;-76
2022/09/11 08:42:42;;;;;;;15.43;13.07;;;;;;;;;;5059306;28;20654;-76
2022/09/11 08:45:14;;;;;;;14.23;12.80;;;;;;;;;;5079339;28;20386;-76
2022/09/11 08:47:47;;;;;;;14.03;12.27;;;;;;;;;;5070377;28;20270;-76
2022/09/11 08:50:19;;;;;;;15.97;14.27;;;;;;;;;;5073021;28;20578;-77
2022/09/11 08:52:46;;;;;;;14.83;13.13;;;;;;;;;;5051158;28;20191;-76
2022/09/11 08:55:16;;;;;;;16.77;14.10;;;;;;;;;;5099287;28;20283;-76
2022/09/11 08:57:50;;;;;;;14.17;12.67;;;;;;;;;;5083885;28;20508;-76
2022/09/11 09:00:23;;;;;;;12.93;11.53;;;;;;;;;;5075930;28;20271;-76
2022/09/11 09:03:17;;;;;;;12.03;10.77;;;;;;;;;;5061276;28;20211;-77
2022/09/11 09:05:54;;;;;;;11.97;10.77;;;;;;;;;;5066728;28;20184;-76
2022/09/11 09:08:33;;;;;;;11.37;10.33;;;;;;;;;;5077063;28;20199;-76
2022/09/11 09:11:08;;;;;;;11.77;10.33;;;;;;;;;;5053447;28;20222;-76
2022/09/11 09:13:40;;;;;;;12.60;11.30;;;;;;;;;;5070101;28;20257;-76
2022/09/11 09:16:20;;;;;;;10.67;9.63;;;;;;;;;;5082963;28;20211;-76
2022/09/11 09:18:54;;;;;;;10.73;9.73;;;;;;;;;;5080188;28;20187;-76
2022/09/11 09:21:27;;;;;;;10.80;9.70;;;;;;;;;;5054825;28;20255;-77
2022/09/11 09:23:58;;;;;;;10.70;9.70;;;;;;;;;;5088021;28;20589;-76
2022/09/11 09:26:29;;;;;;;11.43;9.70;;;;;;;;;;5074454;28;20216;-76
2022/09/11 09:28:57;;;;;;;11.60;10.50;;;;;;;;;;5078656;28;20250;-76
2022/09/11 09:31:27;;;;;;;10.93;9.93;;;;;;;;;;5076575;28;20369;-77
2022/09/11 09:34:02;;;;;;;9.67;8.73;;;;;;;;;;5097159;28;20206;-76
2022/09/11 09:36:30;;;;;;;11.67;10.47;;;;;;;;;;5077314;28;20301;-76
2022/09/11 09:38:58;;;;;;;15.07;10.67;;;;;;;;;;5063445;28;20207;-77
2022/09/11 09:41:42;;;;;;;11.37;10.20;;;;;;;;;;5088432;28;20663;-77
2022/09/11 09:44:09;;;;;;;12.10;10.93;;;;;;;;;;5058799;28;20184;-76
2022/09/11 09:46:43;;;;;;;12.90;10.67;;;;;;;;;;5097027;28;20179;-76
2022/09/11 09:49:10;;;;;;;10.50;9.43;;;;;;;;;;5084856;28;20204;-77
2022/09/11 09:51:38;;;;;;;10.80;9.80;;;;;;;;;;5068564;28;20680;-76
2022/09/11 09:54:05;;;;;;;10.30;9.30;;;;;;;;;;5065395;28;20187;-76
2022/09/11 09:56:32;;;;;;;11.37;10.20;;;;;;;;;;5077030;28;20259;-77
2022/09/11 09:59:08;;;;;;;12.67;10.90;;;;;;;;;;5076208;28;20200;-77
2022/09/11 10:01:48;;;;;;;10.40;8.90;;;;;;;;;;5073416;28;20207;-77
2022/09/11 10:04:14;;;;;;;9.90;8.40;;;;;;;;;;5050119;28;20217;-76
2022/09/11 10:06:42;;;;;;;9.00;8.17;;;;;;;;;;5074102;28;20675;-77
2022/09/11 10:09:37;;;;;;;11.30;8.83;;;;;;;;;;5076949;28;20200;-79
2022/09/11 10:12:12;;;;;;;12.80;9.47;;;;;;;;;;5054589;28;20192;-78
2022/09/11 10:15:05;;;;;;;13.23;9.07;;;;;;;;;;5077289;28;20234;-77
2022/09/11 10:17:35;;;;;;;11.87;9.97;;;;;;;;;;5058838;28;20196;-77
2022/09/11 10:20:31;;;;;;;10.00;8.67;;;;;;;;;;5061244;28;20204;-77
2022/09/11 10:23:17;;;;;;;10.90;9.80;;;;;;;;;;5052352;28;20216;-78
2022/09/11 10:25:48;;;;;;;12.17;10.73;;;;;;;;;;5051112;28;20562;-78
2022/09/11 10:28:18;;;;;;;13.10;11.73;;;;;;;;;;5047457;28;20220;-79
2022/09/11 10:30:54;;;;;;;17.60;13.07;;;;;;;;;;5058202;28;20193;-78
2022/09/11 10:33:28;;;;;;;13.20;11.80;;;;;;;;;;5081642;28;20611;-80
2022/09/11 10:35:54;;;;;;;12.70;11.40;;;;;;;;;;5043798;28;21208;-79
2022/09/11 10:38:23;;;;;;;14.00;12.57;;;;;;;;;;5089455;28;20674;-78
2022/09/11 10:40:53;;;;;;;14.10;11.67;;;;;;;;;;5097529;28;20203;-77
2022/09/11 10:43:23;;;;;;;13.43;12.03;;;;;;;;;;5067602;28;20184;-78
2022/09/11 10:46:03;;;;;;;13.53;11.03;;;;;;;;;;5073467;28;20181;-77
2022/09/11 10:48:30;;;;;;;13.37;11.80;;;;;;;;;;5079978;28;20227;-77
2022/09/11 10:51:10;;;;;;;14.97;12.13;;;;;;;;;;5061593;28;20208;-76
2022/09/11 10:53:46;;;;;;;14.87;12.30;;;;;;;;;;5047446;28;20271;-76
2022/09/11 10:56:13;;;;;;;15.20;12.70;;;;;;;;;;5077037;28;20199;-77
2022/09/11 10:58:41;;;;;;;13.00;11.60;;;;;;;;;;5078421;28;20243;-77
2022/09/11 11:01:08;;;;;;;15.23;11.83;;;;;;;;;;5061221;28;20185;-77
2022/09/11 11:03:34;;;;;;;11.97;10.77;;;;;;;;;;5072619;28;20191;-78
2022/09/11 11:06:19;;;;;;;13.77;12.23;;;;;;;;;;5054925;28;20192;-78
2022/09/11 11:08:56;;;;;;;14.57;11.20;;;;;;;;;;5081403;28;20197;-77
2022/09/11 11:11:34;;;;;;;14.60;11.50;;;;;;;;;;5082328;28;20188;-78
2022/09/11 11:14:20;;;;;;;12.93;11.53;;;;;;;;;;5044790;28;20311;-76
2022/09/11 11:17:05;;;;;;;13.17;11.37;;;;;;;;;;5087092;28;20239;-76
2022/09/11 11:19:36;;;;;;;13.23;11.83;;;;;;;;;;5066031;28;20287;-76
2022/09/11 11:22:33;;;;;;;14.97;10.80;;;;;;;;;;5068157;28;20183;-75
2022/09/11 11:25:20;;;;;;;11.83;10.60;;;;;;;;;;5091337;28;20773;-75
2022/09/11 11:28:05;;;;;;;12.60;11.30;;;;;;;;;;5085347;28;20652;-78
2022/09/11 11:30:50;;;;;;;13.10;11.80;;;;;;;;;;5087175;28;20234;-77
2022/09/11 11:33:16;;;;;;;13.73;11.63;;;;;;;;;;5078634;28;20663;-77
2022/09/11 11:35:56;;;;;;;11.70;10.50;;;;;;;;;;5069632;28;20212;-75
2022/09/11 11:38:42;;;;;;;12.30;10.47;;;;;;;;;;5085035;28;20222;-76
2022/09/11 11:41:08;;;;;;;11.47;10.07;;;;;;;;;;5088785;28;20251;-75
2022/09/11 11:43:38;;;;;;;11.80;10.60;;;;;;;;;;5073759;28;20563;-76
2022/09/11 11:46:11;;;;;;;12.30;11.10;;;;;;;;;;5065882;28;20192;-73
2022/09/11 11:48:57;;;;;;;12.17;10.17;;;;;;;;;;5077157;28;20202;-74
2022/09/11 11:51:27;;;;;;;11.40;10.27;;;;;;;;;;5067191;28;20183;-75
2022/09/11 11:53:54;;;;;;;10.70;9.70;;;;;;;;;;5080147;28;20249;-80
2022/09/11 11:56:39;;;;;;;11.60;10.40;;;;;;;;;;5085862;28;20199;-77
2022/09/11 11:59:15;;;;;;;10.63;9.37;;;;;;;;;;5085102;28;20223;-80
2022/09/11 12:01:54;;;;;;;9.03;8.13;;;;;;;;;;5063744;28;20243;-74
2022/09/11 12:04:40;;;;;;;9.07;8.17;;;;;;;;;;5069650;28;20531;-74
2022/09/11 12:07:12;;;;;;;9.30;7.93;;;;;;;;;;5083657;28;20236;-74
2022/09/11 12:09:39;;;;;;;10.07;9.07;;;;;;;;;;5074182;28;20475;-74
2022/09/11 12:12:06;;;;;;;9.80;8.47;;;;;;;;;;5090977;28;20188;-74
2022/09/11 12:14:33;;;;;;;9.70;8.57;;;;;;;;;;5091063;28;20514;-74
2022/09/11 12:17:17;;;;;;;10.00;8.63;;;;;;;;;;5074007;28;20563;-74
2022/09/11 12:20:02;;;;;;;9.27;8.23;;;;;;;;;;5053343;28;20723;-74
2022/09/11 12:22:33;;;;;;;9.53;8.53;;;;;;;;;;5087870;28;20200;-74
2022/09/11 12:24:59;;;;;;;9.53;8.37;;;;;;;;;;5079399;28;20213;-75
2022/09/11 12:27:35;;;;;;;8.30;7.47;;;;;;;;;;5067188;28;20178;-75
2022/09/11 12:30:16;;;;;;;7.97;7.17;;;;;;;;;;5091652;28;20231;-76
2022/09/11 12:32:44;;;;;;;8.03;7.13;;;;;;;;;;5077700;28;20180;-75
2022/09/11 12:35:19;;;;;;;8.23;7.43;;;;;;;;;;5053183;28;20228;-75
2022/09/11 12:37:52;;;;;;;7.30;6.70;;;;;;;;;;5085528;28;20230;-75
2022/09/11 12:40:26;;;;;;;7.23;6.63;;;;;;;;;;5069730;28;20191;-79
2022/09/11 12:43:05;;;;;;;7.63;6.93;;;;;;;;;;5095183;28;20223;-75
2022/09/11 12:45:34;;;;;;;8.57;6.67;;;;;;;;;;5083197;28;20174;-75
2022/09/11 12:48:02;;;;;;;6.63;5.97;;;;;;;;;;5090319;28;20691;-75
2022/09/11 12:50:28;;;;;;;6.40;5.80;;;;;;;;;;5083370;28;20263;-75
2022/09/11 12:53:01;;;;;;;5.70;5.20;;;;;;;;;;5093566;28;20210;-75
2022/09/11 12:55:42;;;;;;;6.53;5.93;;;;;;;;;;5088901;28;20166;-74
2022/09/11 12:58:24;;;;;;;6.90;6.20;;;;;;;;;;5078140;28;20240;-75
2022/09/11 13:01:13;;;;;;;6.60;6.00;;;;;;;;;;5082461;28;20193;-75
2022/09/11 13:03:52;;;;;;;5.97;5.00;;;;;;;;;;5066612;28;20292;-75
2022/09/11 13:06:18;;;;;;;6.00;5.40;;;;;;;;;;5091247;28;20664;-76
2022/09/11 13:08:47;;;;;;;5.93;5.43;;;;;;;;;;5087236;28;20268;-80
2022/09/11 13:11:37;;;;;;;5.80;5.30;;;;;;;;;;5079908;28;20558;-78
2022/09/11 13:14:25;;;;;;;5.23;4.73;;;;;;;;;;5071165;28;20755;-83
2022/09/11 13:16:52;;;;;;;5.90;5.30;;;;;;;;;;5072126;28;20207;-83
2022/09/11 13:19:19;;;;;;;5.57;5.00;;;;;;;;;;5093904;28;20214;-83
2022/09/11 13:21:48;;;;;;;5.83;5.27;;;;;;;;;;5067095;28;20271;-83
2022/09/11 13:24:29;;;;;;;5.27;4.77;;;;;;;;;;5067543;28;20659;-83
2022/09/11 13:26:58;;;;;;;5.23;4.50;;;;;;;;;;5072162;28;20210;-83
2022/09/11 13:29:28;;;;;;;7.77;5.50;;;;;;;;;;5067295;28;20204;-82
2022/09/11 13:31:56;;;;;;;6.20;5.60;;;;;;;;;;5090525;28;20198;-82
2022/09/11 13:34:23;;;;;;;4.33;4.00;;;;;;;;;;5044904;28;20219;-83
2022/09/11 13:36:50;;;;;;;6.20;5.23;;;;;;;;;;5078238;28;20201;-83
2022/09/11 13:39:18;;;;;;;4.97;4.47;;;;;;;;;;5056413;28;20564;-84
2022/09/11 13:41:45;;;;;;;5.47;4.60;;;;;;;;;;5070751;28;20192;-83
2022/09/11 13:44:26;;;;;;;5.97;4.70;;;;;;;;;;5054945;28;20189;-84
2022/09/11 13:46:54;;;;;;;6.93;5.43;;;;;;;;;;5054155;22;20654;-77
2022/09/11 13:49:37;;;;;;;5.60;5.10;;;;;;;;;;5007002;28;20728;-77
2022/09/11 13:52:07;;;;;;;5.27;4.60;;;;;;;;;;5017863;28;20627;-77
2022/09/11 13:54:40;;;;;;;5.67;5.17;;;;;;;;;;5004729;28;20179;-77
2022/09/11 13:57:26;;;;;;;6.20;5.10;;;;;;;;;;5025461;28;20711;-78
2022/09/11 13:59:55;;;;;;;5.83;5.23;;;;;;;;;;5026434;28;20189;-77
2022/09/11 14:02:34;;;;;;;6.37;5.50;;;;;;;;;;5038624;28;20239;-77
2022/09/11 14:05:03;;;;;;;5.70;5.20;;;;;;;;;;5022984;28;20279;-79
2022/09/11 14:07:32;;;;;;;4.90;4.50;;;;;;;;;;5036290;28;20181;-79
2022/09/11 14:10:05;;;;;;;5.40;4.90;;;;;;;;;;5028743;28;20187;-79
2022/09/11 14:12:32;;;;;;;5.87;5.27;;;;;;;;;;5048479;28;20188;-79
2022/09/11 14:15:01;;;;;;;5.57;5.00;;;;;;;;;;5045629;28;20193;-80
2022/09/11 14:17:28;;;;;;;5.60;5.10;;;;;;;;;;5029526;28;20205;-81
2022/09/11 14:19:58;;;;;;;5.30;4.80;;;;;;;;;;5017085;28;20222;-78
2022/09/11 14:22:27;;;;;;;5.63;5.00;;;;;;;;;;5042325;28;20204;-77
2022/09/11 14:25:02;;;;;;;5.57;4.80;;;;;;;;;;5041425;28;20192;-80
2022/09/11 14:27:31;;;;;;;5.23;4.70;;;;;;;;;;5035216;28;20553;-78
2022/09/11 14:29:58;;;;;;;5.30;4.80;;;;;;;;;;5036048;28;20196;-78
2022/09/11 14:32:31;;;;;;;4.97;4.50;;;;;;;;;;5039298;28;20613;-78
2022/09/11 14:34:58;;;;;;;6.57;4.77;;;;;;;;;;5030583;28;20201;-78
2022/09/11 14:37:27;;;;;;;7.03;5.47;;;;;;;;;;5004776;28;20233;-78
2022/09/11 14:39:54;;;;;;;5.53;4.77;;;;;;;;;;5041461;28;20185;-78
2022/09/11 14:42:22;;;;;;;6.17;4.83;;;;;;;;;;5046742;28;20199;-78
2022/09/11 14:44:48;;;;;;;4.30;3.83;;;;;;;;;;5044326;28;20242;-78
2022/09/11 14:47:18;;;;;;;5.10;4.13;;;;;;;;;;5047227;28;20311;-78
2022/09/11 14:49:45;;;;;;;4.67;4.27;;;;;;;;;;5044755;28;20715;-78
2022/09/11 14:52:13;;;;;;;4.83;4.27;;;;;;;;;;5038442;28;20208;-78
2022/09/11 14:54:39;;;;;;;4.87;4.47;;;;;;;;;;5029054;28;20218;-78
2022/09/11 14:57:13;;;;;;;5.03;4.50;;;;;;;;;;5040433;28;20204;-77
2022/09/11 14:59:39;;;;;;;4.80;4.40;;;;;;;;;;5026399;28;20744;-77